sensor_id;sensor_type;location;lat;lon;timestamp;P1;durP1;ratioP1;P2;durP2;ratioP2
14704;SDS011;7442;50.840;3.396;2022-10-23T00:02:10;2.22;;;1.50;;
14704;SDS011;7442;50.840;3.396;2022-10-23T00:04:40;1.35;;;1.22;;
14704;SDS011;7442;50.840;3.396;2022-10-23T00:07:10;2.37;;;1.20;;
14704;SDS011;7442;50.840;3.396;2022-10-23T00:09:40;2.08;;;1.60;;
14704;SDS011;7442;50.840;3.396;2022-10-23T00:12:10;1.65;;;1.42;;
14704;SDS011;7442;50.840;3.396;2022-10-23T00:14:40;1.82;;;1.32;;
14704;SDS011;7442;50.840;3.396;2022-10-23T00:17:10;2.37;;;1.42;;
14704;SDS011;7442;50.840;3.396;2022-10-23T00:19:40;1.75;;;1.42;;
14704;SDS011;7442;50.840;3.396;2022-10-23T00:22:10;2.33;;;1.30;;
14704;SDS011;7442;50.840;3.396;2022-10-23T00:24:42;2.95;;;1.32;;
14704;SDS011;7442;50.840;3.396;2022-10-23T00:27:12;1.52;;;1.37;;
14704;SDS011;7442;50.840;3.396;2022-10-23T00:29:43;1.50;;;1.40;;
14704;SDS011;7442;50.840;3.396;2022-10-23T00:32:13;3.20;;;1.50;;
14704;SDS011;7442;50.840;3.396;2022-10-23T00:34:43;1.98;;;1.50;;
14704;SDS011;7442;50.840;3.396;2022-10-23T00:37:13;4.08;;;1.50;;
14704;SDS011;7442;50.840;3.396;2022-10-23T00:39:43;1.90;;;1.50;;
14704;SDS011;7442;50.840;3.396;2022-10-23T00:42:19;1.75;;;1.47;;
14704;SDS011;7442;50.840;3.396;2022-10-23T00:47:19;2.67;;;1.72;;
14704;SDS011;7442;50.840;3.396;2022-10-23T00:49:50;1.70;;;1.60;;
14704;SDS011;7442;50.840;3.396;2022-10-23T00:52:20;2.75;;;1.40;;
14704;SDS011;7442;50.840;3.396;2022-10-23T00:54:50;1.60;;;1.40;;
14704;SDS011;7442;50.840;3.396;2022-10-23T00:57:20;1.67;;;1.50;;
14704;SDS011;7442;50.840;3.396;2022-10-23T00:59:50;2.70;;;1.50;;
14704;SDS011;7442;50.840;3.396;2022-10-23T01:02:20;1.30;;;1.20;;
14704;SDS011;7442;50.840;3.396;2022-10-23T01:04:50;2.50;;;1.40;;
14704;SDS011;7442;50.840;3.396;2022-10-23T01:10:05;1.50;;;1.30;;
14704;SDS011;7442;50.840;3.396;2022-10-23T01:12:43;1.30;;;1.20;;
14704;SDS011;7442;50.840;3.396;2022-10-23T01:15:29;1.97;;;1.43;;
14704;SDS011;7442;50.840;3.396;2022-10-23T01:18:15;2.15;;;1.35;;
14704;SDS011;7442;50.840;3.396;2022-10-23T01:21:10;1.60;;;1.02;;
14704;SDS011;7442;50.840;3.396;2022-10-23T01:23:41;2.08;;;1.35;;
14704;SDS011;7442;50.840;3.396;2022-10-23T01:29:04;2.00;;;1.40;;
14704;SDS011;7442;50.840;3.396;2022-10-23T01:34:32;2.27;;;1.40;;
14704;SDS011;7442;50.840;3.396;2022-10-23T01:37:26;2.27;;;1.37;;
14704;SDS011;7442;50.840;3.396;2022-10-23T01:39:53;3.27;;;1.40;;
14704;SDS011;7442;50.840;3.396;2022-10-23T01:42:32;1.75;;;1.50;;
14704;SDS011;7442;50.840;3.396;2022-10-23T01:45:03;1.50;;;1.40;;
14704;SDS011;7442;50.840;3.396;2022-10-23T01:47:35;1.37;;;1.15;;
14704;SDS011;7442;50.840;3.396;2022-10-23T01:50:07;2.02;;;1.50;;
14704;SDS011;7442;50.840;3.396;2022-10-23T01:52:39;1.67;;;1.20;;
14704;SDS011;7442;50.840;3.396;2022-10-23T01:55:09;1.90;;;1.25;;
14704;SDS011;7442;50.840;3.396;2022-10-23T01:57:41;2.85;;;1.30;;
14704;SDS011;7442;50.840;3.396;2022-10-23T02:00:14;1.70;;;1.20;;
14704;SDS011;7442;50.840;3.396;2022-10-23T02:02:45;1.40;;;1.27;;
14704;SDS011;7442;50.840;3.396;2022-10-23T02:05:20;2.98;;;1.32;;
14704;SDS011;7442;50.840;3.396;2022-10-23T02:07:51;2.20;;;1.20;;
14704;SDS011;7442;50.840;3.396;2022-10-23T02:10:23;2.00;;;1.22;;
14704;SDS011;7442;50.840;3.396;2022-10-23T02:15:37;1.40;;;1.20;;
14704;SDS011;7442;50.840;3.396;2022-10-23T02:21:05;1.17;;;1.07;;
14704;SDS011;7442;50.840;3.396;2022-10-23T02:23:43;1.72;;;1.50;;
14704;SDS011;7442;50.840;3.396;2022-10-23T02:26:17;2.62;;;1.30;;
14704;SDS011;7442;50.840;3.396;2022-10-23T02:28:50;1.55;;;1.20;;
14704;SDS011;7442;50.840;3.396;2022-10-23T02:31:22;1.27;;;1.12;;
14704;SDS011;7442;50.840;3.396;2022-10-23T02:33:52;2.33;;;1.20;;
14704;SDS011;7442;50.840;3.396;2022-10-23T02:36:22;1.67;;;1.27;;
14704;SDS011;7442;50.840;3.396;2022-10-23T02:38:52;1.55;;;1.25;;
14704;SDS011;7442;50.840;3.396;2022-10-23T02:41:24;1.85;;;1.05;;
14704;SDS011;7442;50.840;3.396;2022-10-23T02:47:09;1.60;;;1.25;;
14704;SDS011;7442;50.840;3.396;2022-10-23T02:50:05;1.55;;;1.40;;
14704;SDS011;7442;50.840;3.396;2022-10-23T02:58:02;1.77;;;1.30;;
14704;SDS011;7442;50.840;3.396;2022-10-23T03:00:44;1.47;;;1.20;;
14704;SDS011;7442;50.840;3.396;2022-10-23T03:03:16;1.90;;;1.42;;
14704;SDS011;7442;50.840;3.396;2022-10-23T03:05:52;2.52;;;1.40;;
14704;SDS011;7442;50.840;3.396;2022-10-23T03:08:22;1.15;;;1.05;;
14704;SDS011;7442;50.840;3.396;2022-10-23T03:10:52;2.40;;;1.52;;
14704;SDS011;7442;50.840;3.396;2022-10-23T03:13:22;3.65;;;1.42;;
14704;SDS011;7442;50.840;3.396;2022-10-23T03:15:52;3.50;;;1.40;;
14704;SDS011;7442;50.840;3.396;2022-10-23T03:18:22;1.42;;;1.20;;
14704;SDS011;7442;50.840;3.396;2022-10-23T03:20:52;1.12;;;1.02;;
14704;SDS011;7442;50.840;3.396;2022-10-23T03:23:22;1.32;;;1.10;;
14704;SDS011;7442;50.840;3.396;2022-10-23T03:25:53;1.35;;;1.20;;
14704;SDS011;7442;50.840;3.396;2022-10-23T03:28:23;1.10;;;1.00;;
14704;SDS011;7442;50.840;3.396;2022-10-23T03:30:53;0.95;;;0.88;;
14704;SDS011;7442;50.840;3.396;2022-10-23T03:33:23;1.00;;;0.95;;
14704;SDS011;7442;50.840;3.396;2022-10-23T03:35:53;1.30;;;1.20;;
14704;SDS011;7442;50.840;3.396;2022-10-23T03:38:23;2.92;;;1.22;;
14704;SDS011;7442;50.840;3.396;2022-10-23T03:40:53;1.35;;;1.20;;
14704;SDS011;7442;50.840;3.396;2022-10-23T03:43:23;1.10;;;1.00;;
14704;SDS011;7442;50.840;3.396;2022-10-23T03:45:57;1.20;;;1.10;;
14704;SDS011;7442;50.840;3.396;2022-10-23T03:48:28;3.55;;;1.40;;
14704;SDS011;7442;50.840;3.396;2022-10-23T03:50:59;1.27;;;1.10;;
14704;SDS011;7442;50.840;3.396;2022-10-23T03:53:29;1.20;;;1.10;;
14704;SDS011;7442;50.840;3.396;2022-10-23T03:56:00;1.60;;;1.20;;
14704;SDS011;7442;50.840;3.396;2022-10-23T03:58:30;1.07;;;1.00;;
14704;SDS011;7442;50.840;3.396;2022-10-23T04:01:00;2.10;;;1.15;;
14704;SDS011;7442;50.840;3.396;2022-10-23T04:03:30;1.00;;;0.90;;
14704;SDS011;7442;50.840;3.396;2022-10-23T04:06:00;2.45;;;1.30;;
14704;SDS011;7442;50.840;3.396;2022-10-23T04:08:30;1.90;;;1.30;;
14704;SDS011;7442;50.840;3.396;2022-10-23T04:11:00;1.50;;;1.10;;
14704;SDS011;7442;50.840;3.396;2022-10-23T04:13:30;1.45;;;0.90;;
14704;SDS011;7442;50.840;3.396;2022-10-23T04:16:00;1.17;;;1.07;;
14704;SDS011;7442;50.840;3.396;2022-10-23T04:18:30;1.35;;;1.25;;
14704;SDS011;7442;50.840;3.396;2022-10-23T04:21:00;2.85;;;1.02;;
14704;SDS011;7442;50.840;3.396;2022-10-23T04:23:30;1.25;;;1.12;;
14704;SDS011;7442;50.840;3.396;2022-10-23T04:26:00;1.57;;;1.00;;
14704;SDS011;7442;50.840;3.396;2022-10-23T04:28:31;1.55;;;1.12;;
14704;SDS011;7442;50.840;3.396;2022-10-23T04:31:01;1.67;;;1.10;;
14704;SDS011;7442;50.840;3.396;2022-10-23T04:33:31;1.40;;;1.00;;
14704;SDS011;7442;50.840;3.396;2022-10-23T04:36:01;1.70;;;1.22;;
14704;SDS011;7442;50.840;3.396;2022-10-23T04:38:31;3.60;;;1.40;;
14704;SDS011;7442;50.840;3.396;2022-10-23T04:41:03;1.20;;;1.10;;
14704;SDS011;7442;50.840;3.396;2022-10-23T04:43:33;1.20;;;1.10;;
14704;SDS011;7442;50.840;3.396;2022-10-23T04:46:03;1.32;;;1.00;;
14704;SDS011;7442;50.840;3.396;2022-10-23T04:48:34;1.37;;;1.10;;
14704;SDS011;7442;50.840;3.396;2022-10-23T04:51:04;1.32;;;1.05;;
14704;SDS011;7442;50.840;3.396;2022-10-23T04:53:34;2.25;;;1.20;;
14704;SDS011;7442;50.840;3.396;2022-10-23T04:56:06;1.85;;;1.10;;
14704;SDS011;7442;50.840;3.396;2022-10-23T04:58:37;1.45;;;1.07;;
14704;SDS011;7442;50.840;3.396;2022-10-23T05:01:08;1.10;;;1.00;;
14704;SDS011;7442;50.840;3.396;2022-10-23T05:03:38;2.40;;;1.07;;
14704;SDS011;7442;50.840;3.396;2022-10-23T05:06:08;1.15;;;1.05;;
14704;SDS011;7442;50.840;3.396;2022-10-23T05:08:38;1.25;;;1.15;;
14704;SDS011;7442;50.840;3.396;2022-10-23T05:11:08;3.15;;;1.20;;
14704;SDS011;7442;50.840;3.396;2022-10-23T05:13:40;1.80;;;1.30;;
14704;SDS011;7442;50.840;3.396;2022-10-23T05:16:10;1.37;;;1.07;;
14704;SDS011;7442;50.840;3.396;2022-10-23T05:18:44;1.25;;;1.00;;
14704;SDS011;7442;50.840;3.396;2022-10-23T05:21:22;1.37;;;0.90;;
14704;SDS011;7442;50.840;3.396;2022-10-23T05:23:54;1.37;;;1.10;;
14704;SDS011;7442;50.840;3.396;2022-10-23T05:26:24;1.22;;;1.10;;
14704;SDS011;7442;50.840;3.396;2022-10-23T05:28:54;1.20;;;1.00;;
14704;SDS011;7442;50.840;3.396;2022-10-23T05:31:24;1.47;;;0.93;;
14704;SDS011;7442;50.840;3.396;2022-10-23T05:33:54;1.05;;;0.90;;
14704;SDS011;7442;50.840;3.396;2022-10-23T05:36:25;1.27;;;1.02;;
14704;SDS011;7442;50.840;3.396;2022-10-23T05:38:56;2.12;;;1.10;;
14704;SDS011;7442;50.840;3.396;2022-10-23T05:41:27;1.07;;;0.98;;
14704;SDS011;7442;50.840;3.396;2022-10-23T05:43:57;1.50;;;1.35;;
14704;SDS011;7442;50.840;3.396;2022-10-23T05:46:27;1.05;;;0.90;;
14704;SDS011;7442;50.840;3.396;2022-10-23T05:48:57;1.92;;;1.12;;
14704;SDS011;7442;50.840;3.396;2022-10-23T05:51:27;2.72;;;1.00;;
14704;SDS011;7442;50.840;3.396;2022-10-23T05:53:57;1.15;;;0.98;;
14704;SDS011;7442;50.840;3.396;2022-10-23T05:56:27;1.70;;;1.00;;
14704;SDS011;7442;50.840;3.396;2022-10-23T05:58:57;1.37;;;1.07;;
14704;SDS011;7442;50.840;3.396;2022-10-23T06:01:27;0.80;;;0.80;;
14704;SDS011;7442;50.840;3.396;2022-10-23T06:03:57;1.27;;;1.00;;
14704;SDS011;7442;50.840;3.396;2022-10-23T06:06:31;1.62;;;1.12;;
14704;SDS011;7442;50.840;3.396;2022-10-23T06:09:02;1.65;;;1.32;;
14704;SDS011;7442;50.840;3.396;2022-10-23T06:11:32;1.75;;;1.10;;
14704;SDS011;7442;50.840;3.396;2022-10-23T06:14:02;1.25;;;1.00;;
14704;SDS011;7442;50.840;3.396;2022-10-23T06:16:32;1.30;;;1.07;;
14704;SDS011;7442;50.840;3.396;2022-10-23T06:19:02;1.05;;;0.90;;
14704;SDS011;7442;50.840;3.396;2022-10-23T06:21:35;1.20;;;1.10;;
14704;SDS011;7442;50.840;3.396;2022-10-23T06:24:10;1.62;;;0.80;;
14704;SDS011;7442;50.840;3.396;2022-10-23T06:26:40;1.15;;;1.05;;
14704;SDS011;7442;50.840;3.396;2022-10-23T06:29:10;1.07;;;0.93;;
14704;SDS011;7442;50.840;3.396;2022-10-23T06:31:40;1.27;;;1.00;;
14704;SDS011;7442;50.840;3.396;2022-10-23T06:34:11;1.42;;;1.05;;
14704;SDS011;7442;50.840;3.396;2022-10-23T06:36:41;1.42;;;1.15;;
14704;SDS011;7442;50.840;3.396;2022-10-23T06:39:12;2.25;;;1.20;;
14704;SDS011;7442;50.840;3.396;2022-10-23T06:41:42;0.90;;;0.90;;
14704;SDS011;7442;50.840;3.396;2022-10-23T06:44:12;1.10;;;1.00;;
14704;SDS011;7442;50.840;3.396;2022-10-23T06:46:42;1.02;;;0.93;;
14704;SDS011;7442;50.840;3.396;2022-10-23T06:49:14;0.85;;;0.82;;
14704;SDS011;7442;50.840;3.396;2022-10-23T06:51:46;0.98;;;0.93;;
14704;SDS011;7442;50.840;3.396;2022-10-23T06:54:16;1.55;;;1.05;;
14704;SDS011;7442;50.840;3.396;2022-10-23T06:56:46;1.00;;;0.90;;
14704;SDS011;7442;50.840;3.396;2022-10-23T06:59:16;1.72;;;1.07;;
14704;SDS011;7442;50.840;3.396;2022-10-23T07:01:46;2.50;;;0.90;;
14704;SDS011;7442;50.840;3.396;2022-10-23T07:04:16;1.07;;;0.98;;
14704;SDS011;7442;50.840;3.396;2022-10-23T07:06:46;2.08;;;0.95;;
14704;SDS011;7442;50.840;3.396;2022-10-23T07:09:16;1.22;;;0.90;;
14704;SDS011;7442;50.840;3.396;2022-10-23T07:11:46;1.25;;;1.15;;
14704;SDS011;7442;50.840;3.396;2022-10-23T07:14:17;1.00;;;0.90;;
14704;SDS011;7442;50.840;3.396;2022-10-23T07:16:47;1.65;;;0.78;;
14704;SDS011;7442;50.840;3.396;2022-10-23T07:19:17;1.82;;;1.20;;
14704;SDS011;7442;50.840;3.396;2022-10-23T07:21:47;0.95;;;0.90;;
14704;SDS011;7442;50.840;3.396;2022-10-23T07:24:17;1.17;;;1.05;;
14704;SDS011;7442;50.840;3.396;2022-10-23T07:26:47;0.85;;;0.85;;
14704;SDS011;7442;50.840;3.396;2022-10-23T07:29:17;1.47;;;1.27;;
14704;SDS011;7442;50.840;3.396;2022-10-23T07:31:47;1.35;;;0.90;;
14704;SDS011;7442;50.840;3.396;2022-10-23T07:34:17;1.80;;;1.10;;
14704;SDS011;7442;50.840;3.396;2022-10-23T07:36:47;0.85;;;0.80;;
14704;SDS011;7442;50.840;3.396;2022-10-23T07:39:17;0.90;;;0.90;;
14704;SDS011;7442;50.840;3.396;2022-10-23T07:41:47;1.35;;;1.07;;
14704;SDS011;7442;50.840;3.396;2022-10-23T07:44:17;0.85;;;0.82;;
14704;SDS011;7442;50.840;3.396;2022-10-23T07:46:48;0.80;;;0.80;;
14704;SDS011;7442;50.840;3.396;2022-10-23T07:49:18;1.45;;;1.17;;
14704;SDS011;7442;50.840;3.396;2022-10-23T07:51:49;0.98;;;0.98;;
14704;SDS011;7442;50.840;3.396;2022-10-23T07:54:21;0.80;;;0.80;;
14704;SDS011;7442;50.840;3.396;2022-10-23T07:56:51;1.20;;;0.93;;
14704;SDS011;7442;50.840;3.396;2022-10-23T07:59:21;1.07;;;0.90;;
14704;SDS011;7442;50.840;3.396;2022-10-23T08:01:51;2.12;;;0.90;;
14704;SDS011;7442;50.840;3.396;2022-10-23T08:04:23;1.50;;;0.90;;
14704;SDS011;7442;50.840;3.396;2022-10-23T08:06:54;1.22;;;1.00;;
14704;SDS011;7442;50.840;3.396;2022-10-23T08:09:24;0.93;;;0.70;;
14704;SDS011;7442;50.840;3.396;2022-10-23T08:11:54;1.00;;;0.90;;
14704;SDS011;7442;50.840;3.396;2022-10-23T08:14:24;0.80;;;0.80;;
14704;SDS011;7442;50.840;3.396;2022-10-23T08:16:54;1.45;;;1.02;;
14704;SDS011;7442;50.840;3.396;2022-10-23T08:19:24;0.80;;;0.80;;
14704;SDS011;7442;50.840;3.396;2022-10-23T08:21:54;0.80;;;0.80;;
14704;SDS011;7442;50.840;3.396;2022-10-23T08:24:24;0.80;;;0.80;;
14704;SDS011;7442;50.840;3.396;2022-10-23T08:26:54;1.42;;;1.00;;
14704;SDS011;7442;50.840;3.396;2022-10-23T08:29:25;0.88;;;0.88;;
14704;SDS011;7442;50.840;3.396;2022-10-23T08:31:55;1.32;;;1.10;;
14704;SDS011;7442;50.840;3.396;2022-10-23T08:34:26;1.10;;;1.00;;
14704;SDS011;7442;50.840;3.396;2022-10-23T08:36:56;1.50;;;1.20;;
14704;SDS011;7442;50.840;3.396;2022-10-23T08:39:26;1.77;;;1.00;;
14704;SDS011;7442;50.840;3.396;2022-10-23T08:41:56;1.67;;;0.80;;
14704;SDS011;7442;50.840;3.396;2022-10-23T08:47:16;1.77;;;0.90;;
14704;SDS011;7442;50.840;3.396;2022-10-23T08:49:52;0.95;;;0.95;;
14704;SDS011;7442;50.840;3.396;2022-10-23T08:52:29;0.90;;;0.80;;
14704;SDS011;7442;50.840;3.396;2022-10-23T08:58:04;0.93;;;0.80;;
14704;SDS011;7442;50.840;3.396;2022-10-23T09:00:48;1.20;;;1.00;;
14704;SDS011;7442;50.840;3.396;2022-10-23T09:03:19;1.07;;;1.00;;
14704;SDS011;7442;50.840;3.396;2022-10-23T09:06:00;1.47;;;1.20;;
14704;SDS011;7442;50.840;3.396;2022-10-23T09:22:52;0.95;;;0.85;;
14704;SDS011;7442;50.840;3.396;2022-10-23T09:25:26;0.80;;;0.80;;
14704;SDS011;7442;50.840;3.396;2022-10-23T09:27:58;1.15;;;0.90;;
14704;SDS011;7442;50.840;3.396;2022-10-23T09:30:37;0.65;;;0.65;;
14704;SDS011;7442;50.840;3.396;2022-10-23T09:33:20;1.00;;;0.80;;
14704;SDS011;7442;50.840;3.396;2022-10-23T09:35:58;1.15;;;0.90;;
14704;SDS011;7442;50.840;3.396;2022-10-23T09:38:37;1.10;;;0.80;;
14704;SDS011;7442;50.840;3.396;2022-10-23T09:41:12;1.10;;;0.90;;
14704;SDS011;7442;50.840;3.396;2022-10-23T09:44:00;1.02;;;0.70;;
14704;SDS011;7442;50.840;3.396;2022-10-23T09:46:47;1.07;;;0.90;;
14704;SDS011;7442;50.840;3.396;2022-10-23T09:49:21;0.82;;;0.75;;
14704;SDS011;7442;50.840;3.396;2022-10-23T09:51:59;1.70;;;0.90;;
14704;SDS011;7442;50.840;3.396;2022-10-23T09:54:38;1.80;;;1.10;;
14704;SDS011;7442;50.840;3.396;2022-10-23T09:57:33;1.42;;;1.20;;
14704;SDS011;7442;50.840;3.396;2022-10-23T10:02:56;1.00;;;0.90;;
14704;SDS011;7442;50.840;3.396;2022-10-23T10:05:35;0.95;;;0.88;;
14704;SDS011;7442;50.840;3.396;2022-10-23T10:11:09;1.25;;;1.05;;
14704;SDS011;7442;50.840;3.396;2022-10-23T10:16:40;1.12;;;1.10;;
14704;SDS011;7442;50.840;3.396;2022-10-23T10:19:18;0.80;;;0.80;;
14704;SDS011;7442;50.840;3.396;2022-10-23T10:22:25;0.80;;;0.78;;
14704;SDS011;7442;50.840;3.396;2022-10-23T10:25:18;0.78;;;0.78;;
14704;SDS011;7442;50.840;3.396;2022-10-23T10:28:10;1.10;;;1.00;;
14704;SDS011;7442;50.840;3.396;2022-10-23T10:33:34;1.07;;;0.90;;
14704;SDS011;7442;50.840;3.396;2022-10-23T10:36:28;1.57;;;0.88;;
14704;SDS011;7442;50.840;3.396;2022-10-23T10:39:00;1.35;;;1.05;;
14704;SDS011;7442;50.840;3.396;2022-10-23T10:41:36;1.12;;;1.00;;
14704;SDS011;7442;50.840;3.396;2022-10-23T10:47:14;1.50;;;1.10;;
14704;SDS011;7442;50.840;3.396;2022-10-23T10:53:01;2.40;;;1.07;;
14704;SDS011;7442;50.840;3.396;2022-10-23T10:55:34;1.05;;;0.82;;
14704;SDS011;7442;50.840;3.396;2022-10-23T11:01:02;1.65;;;1.00;;
14704;SDS011;7442;50.840;3.396;2022-10-23T11:06:17;0.90;;;0.90;;
14704;SDS011;7442;50.840;3.396;2022-10-23T11:08:49;1.20;;;1.00;;
14704;SDS011;7442;50.840;3.396;2022-10-23T11:14:21;1.45;;;0.90;;
14704;SDS011;7442;50.840;3.396;2022-10-23T11:22:46;0.80;;;0.78;;
14704;SDS011;7442;50.840;3.396;2022-10-23T11:25:38;1.25;;;1.15;;
14704;SDS011;7442;50.840;3.396;2022-10-23T11:28:33;1.27;;;1.12;;
14704;SDS011;7442;50.840;3.396;2022-10-23T11:34:01;1.47;;;1.07;;
14704;SDS011;7442;50.840;3.396;2022-10-23T11:36:52;1.22;;;1.00;;
14704;SDS011;7442;50.840;3.396;2022-10-23T11:39:25;1.00;;;0.90;;
14704;SDS011;7442;50.840;3.396;2022-10-23T11:44:43;1.47;;;1.02;;
14704;SDS011;7442;50.840;3.396;2022-10-23T11:47:34;1.95;;;1.00;;
14704;SDS011;7442;50.840;3.396;2022-10-23T11:53:35;1.80;;;1.05;;
14704;SDS011;7442;50.840;3.396;2022-10-23T11:55:31;1.20;;;1.10;;
14704;SDS011;7442;50.840;3.396;2022-10-23T12:00:48;2.02;;;1.22;;
14704;SDS011;7442;50.840;3.396;2022-10-23T12:03:23;2.08;;;1.22;;
14704;SDS011;7442;50.840;3.396;2022-10-23T12:06:14;1.95;;;1.00;;
14704;SDS011;7442;50.840;3.396;2022-10-23T12:08:41;2.02;;;1.00;;
14704;SDS011;7442;50.840;3.396;2022-10-23T12:11:27;1.20;;;1.10;;
14704;SDS011;7442;50.840;3.396;2022-10-23T12:13:58;1.67;;;1.30;;
14704;SDS011;7442;50.840;3.396;2022-10-23T12:16:34;1.42;;;1.00;;
14704;SDS011;7442;50.840;3.396;2022-10-23T12:19:16;1.92;;;1.15;;
14704;SDS011;7442;50.840;3.396;2022-10-23T12:21:57;1.00;;;0.90;;
14704;SDS011;7442;50.840;3.396;2022-10-23T12:27:39;1.35;;;1.17;;
14704;SDS011;7442;50.840;3.396;2022-10-23T12:38:28;1.30;;;1.05;;
14704;SDS011;7442;50.840;3.396;2022-10-23T12:40:59;1.17;;;1.07;;
14704;SDS011;7442;50.840;3.396;2022-10-23T12:43:35;1.52;;;1.07;;
14704;SDS011;7442;50.840;3.396;2022-10-23T12:46:17;1.55;;;1.20;;
14704;SDS011;7442;50.840;3.396;2022-10-23T12:48:51;1.15;;;0.98;;
14704;SDS011;7442;50.840;3.396;2022-10-23T12:51:28;1.95;;;1.30;;
14704;SDS011;7442;50.840;3.396;2022-10-23T12:54:00;1.20;;;1.07;;
14704;SDS011;7442;50.840;3.396;2022-10-23T12:56:34;1.45;;;1.10;;
14704;SDS011;7442;50.840;3.396;2022-10-23T12:59:12;1.32;;;1.10;;
14704;SDS011;7442;50.840;3.396;2022-10-23T13:01:45;1.70;;;1.30;;
14704;SDS011;7442;50.840;3.396;2022-10-23T13:07:01;2.05;;;1.20;;
14704;SDS011;7442;50.840;3.396;2022-10-23T13:09:32;0.85;;;0.85;;
14704;SDS011;7442;50.840;3.396;2022-10-23T13:12:05;0.88;;;0.88;;
14704;SDS011;7442;50.840;3.396;2022-10-23T13:14:38;1.70;;;1.15;;
14704;SDS011;7442;50.840;3.396;2022-10-23T13:17:13;1.47;;;1.20;;
14704;SDS011;7442;50.840;3.396;2022-10-23T13:19:43;1.67;;;1.40;;
14704;SDS011;7442;50.840;3.396;2022-10-23T13:22:18;1.27;;;1.17;;
14704;SDS011;7442;50.840;3.396;2022-10-23T13:24:47;1.85;;;1.20;;
14704;SDS011;7442;50.840;3.396;2022-10-23T13:27:30;1.27;;;1.07;;
14704;SDS011;7442;50.840;3.396;2022-10-23T13:29:56;1.15;;;1.05;;
14704;SDS011;7442;50.840;3.396;2022-10-23T13:32:28;1.70;;;1.17;;
14704;SDS011;7442;50.840;3.396;2022-10-23T13:34:58;1.47;;;1.20;;
14704;SDS011;7442;50.840;3.396;2022-10-23T13:37:30;1.55;;;1.15;;
14704;SDS011;7442;50.840;3.396;2022-10-23T13:40:05;1.07;;;0.95;;
14704;SDS011;7442;50.840;3.396;2022-10-23T13:42:34;1.20;;;1.10;;
14704;SDS011;7442;50.840;3.396;2022-10-23T13:45:08;1.40;;;1.30;;
14704;SDS011;7442;50.840;3.396;2022-10-23T13:47:38;1.32;;;1.20;;
14704;SDS011;7442;50.840;3.396;2022-10-23T13:50:08;1.42;;;1.25;;
14704;SDS011;7442;50.840;3.396;2022-10-23T13:52:38;3.77;;;0.98;;
14704;SDS011;7442;50.840;3.396;2022-10-23T13:57:45;1.52;;;1.20;;
14704;SDS011;7442;50.840;3.396;2022-10-23T14:00:15;2.47;;;1.17;;
14704;SDS011;7442;50.840;3.396;2022-10-23T14:02:46;1.30;;;1.10;;
14704;SDS011;7442;50.840;3.396;2022-10-23T14:05:16;1.60;;;1.15;;
14704;SDS011;7442;50.840;3.396;2022-10-23T14:07:46;1.20;;;1.10;;
14704;SDS011;7442;50.840;3.396;2022-10-23T14:10:17;1.35;;;1.07;;
14704;SDS011;7442;50.840;3.396;2022-10-23T14:12:47;0.98;;;0.98;;
14704;SDS011;7442;50.840;3.396;2022-10-23T14:15:19;1.80;;;1.15;;
14704;SDS011;7442;50.840;3.396;2022-10-23T14:17:50;2.17;;;1.25;;
14704;SDS011;7442;50.840;3.396;2022-10-23T14:20:20;1.52;;;1.22;;
14704;SDS011;7442;50.840;3.396;2022-10-23T14:22:50;1.22;;;1.12;;
14704;SDS011;7442;50.840;3.396;2022-10-23T14:25:20;2.90;;;1.27;;
14704;SDS011;7442;50.840;3.396;2022-10-23T14:27:50;1.55;;;1.20;;
14704;SDS011;7442;50.840;3.396;2022-10-23T14:30:20;1.45;;;1.30;;
14704;SDS011;7442;50.840;3.396;2022-10-23T14:32:52;1.30;;;1.20;;
14704;SDS011;7442;50.840;3.396;2022-10-23T14:35:22;2.22;;;1.02;;
14704;SDS011;7442;50.840;3.396;2022-10-23T14:37:52;1.20;;;1.10;;
14704;SDS011;7442;50.840;3.396;2022-10-23T14:40:22;1.30;;;1.10;;
14704;SDS011;7442;50.840;3.396;2022-10-23T14:42:53;1.20;;;1.10;;
14704;SDS011;7442;50.840;3.396;2022-10-23T14:45:23;1.52;;;0.95;;
14704;SDS011;7442;50.840;3.396;2022-10-23T14:47:53;3.40;;;1.50;;
14704;SDS011;7442;50.840;3.396;2022-10-23T14:50:23;1.37;;;1.27;;
14704;SDS011;7442;50.840;3.396;2022-10-23T14:52:53;1.30;;;1.10;;
14704;SDS011;7442;50.840;3.396;2022-10-23T14:55:23;2.95;;;1.17;;
14704;SDS011;7442;50.840;3.396;2022-10-23T14:57:54;1.35;;;1.17;;
14704;SDS011;7442;50.840;3.396;2022-10-23T15:00:24;1.45;;;1.00;;
14704;SDS011;7442;50.840;3.396;2022-10-23T15:02:54;1.30;;;1.17;;
14704;SDS011;7442;50.840;3.396;2022-10-23T15:05:25;1.82;;;1.30;;
14704;SDS011;7442;50.840;3.396;2022-10-23T15:07:54;0.98;;;0.95;;
14704;SDS011;7442;50.840;3.396;2022-10-23T15:10:26;1.35;;;1.25;;
14704;SDS011;7442;50.840;3.396;2022-10-23T15:12:56;1.10;;;1.00;;
14704;SDS011;7442;50.840;3.396;2022-10-23T15:15:26;1.70;;;1.20;;
14704;SDS011;7442;50.840;3.396;2022-10-23T15:17:56;1.22;;;1.12;;
14704;SDS011;7442;50.840;3.396;2022-10-23T15:20:26;1.32;;;1.22;;
14704;SDS011;7442;50.840;3.396;2022-10-23T15:22:56;1.52;;;1.10;;
14704;SDS011;7442;50.840;3.396;2022-10-23T15:25:28;1.60;;;1.30;;
14704;SDS011;7442;50.840;3.396;2022-10-23T15:27:58;1.32;;;1.15;;
14704;SDS011;7442;50.840;3.396;2022-10-23T15:30:28;1.20;;;1.10;;
14704;SDS011;7442;50.840;3.396;2022-10-23T15:32:58;1.32;;;1.10;;
14704;SDS011;7442;50.840;3.396;2022-10-23T15:35:28;1.30;;;1.20;;
14704;SDS011;7442;50.840;3.396;2022-10-23T15:37:59;1.05;;;1.00;;
14704;SDS011;7442;50.840;3.396;2022-10-23T15:40:31;1.35;;;1.12;;
14704;SDS011;7442;50.840;3.396;2022-10-23T15:43:01;1.40;;;1.30;;
14704;SDS011;7442;50.840;3.396;2022-10-23T15:45:32;1.65;;;1.32;;
14704;SDS011;7442;50.840;3.396;2022-10-23T15:48:02;1.10;;;1.10;;
14704;SDS011;7442;50.840;3.396;2022-10-23T15:50:32;1.40;;;1.27;;
14704;SDS011;7442;50.840;3.396;2022-10-23T15:53:03;1.30;;;1.20;;
14704;SDS011;7442;50.840;3.396;2022-10-23T15:55:33;1.27;;;1.00;;
14704;SDS011;7442;50.840;3.396;2022-10-23T15:58:04;1.77;;;1.20;;
14704;SDS011;7442;50.840;3.396;2022-10-23T16:00:34;1.32;;;1.10;;
14704;SDS011;7442;50.840;3.396;2022-10-23T16:03:07;0.93;;;0.88;;
14704;SDS011;7442;50.840;3.396;2022-10-23T16:05:37;1.22;;;1.12;;
14704;SDS011;7442;50.840;3.396;2022-10-23T16:08:07;1.50;;;1.22;;
14704;SDS011;7442;50.840;3.396;2022-10-23T16:10:38;1.22;;;1.12;;
14704;SDS011;7442;50.840;3.396;2022-10-23T16:13:09;1.45;;;1.20;;
14704;SDS011;7442;50.840;3.396;2022-10-23T16:15:39;1.40;;;1.30;;
14704;SDS011;7442;50.840;3.396;2022-10-23T16:18:11;1.27;;;1.10;;
14704;SDS011;7442;50.840;3.396;2022-10-23T16:20:42;1.40;;;1.20;;
14704;SDS011;7442;50.840;3.396;2022-10-23T16:23:12;1.35;;;1.10;;
14704;SDS011;7442;50.840;3.396;2022-10-23T16:25:42;1.27;;;1.17;;
14704;SDS011;7442;50.840;3.396;2022-10-23T16:28:13;1.10;;;0.98;;
14704;SDS011;7442;50.840;3.396;2022-10-23T16:30:43;1.37;;;1.25;;
14704;SDS011;7442;50.840;3.396;2022-10-23T16:33:13;1.67;;;1.25;;
14704;SDS011;7442;50.840;3.396;2022-10-23T16:35:43;9.33;;;2.92;;
14704;SDS011;7442;50.840;3.396;2022-10-23T16:38:14;10.25;;;3.52;;
14704;SDS011;7442;50.840;3.396;2022-10-23T16:40:49;11.63;;;2.92;;
14704;SDS011;7442;50.840;3.396;2022-10-23T16:43:19;7.35;;;2.58;;
14704;SDS011;7442;50.840;3.396;2022-10-23T16:45:59;7.62;;;2.30;;
14704;SDS011;7442;50.840;3.396;2022-10-23T16:48:31;6.22;;;2.50;;
14704;SDS011;7442;50.840;3.396;2022-10-23T16:51:05;7.80;;;2.60;;
14704;SDS011;7442;50.840;3.396;2022-10-23T16:53:37;7.90;;;2.42;;
14704;SDS011;7442;50.840;3.396;2022-10-23T16:56:09;5.50;;;2.52;;
14704;SDS011;7442;50.840;3.396;2022-10-23T16:58:42;8.55;;;3.02;;
14704;SDS011;7442;50.840;3.396;2022-10-23T17:01:14;6.40;;;2.58;;
14704;SDS011;7442;50.840;3.396;2022-10-23T17:03:47;6.28;;;2.50;;
14704;SDS011;7442;50.840;3.396;2022-10-23T17:06:23;5.17;;;2.42;;
14704;SDS011;7442;50.840;3.396;2022-10-23T17:08:55;6.40;;;2.22;;
14704;SDS011;7442;50.840;3.396;2022-10-23T17:11:27;5.25;;;2.35;;
14704;SDS011;7442;50.840;3.396;2022-10-23T17:14:03;8.75;;;2.37;;
14704;SDS011;7442;50.840;3.396;2022-10-23T17:16:40;6.10;;;2.60;;
14704;SDS011;7442;50.840;3.396;2022-10-23T17:19:12;5.78;;;2.35;;